Latest Coastal Weather Observations for Taree Airport

IDN60701

Issued at 2:51 pm EST Thursday 25 April 2024 (issued every 10 minutes, with the page automatically refreshed every 10 minutes)

About coastal observations | Map of coastal stations | Coastal observations for NSW | Marine services | Other Formats
Station Details ID: 060141 Name: TAREE AIRPORT AWS Lat: -31.89 Lon: 152.51 Height: 8.0 m
Data from the previous 72 hours. | See also: Recent months at Taree Airport
Date/Time
EST
Wind Sea
Height
m
Swell Vis
km
Cloud Weather Temp
°C
Press
MSL
hPa
Rain since
9am
mm
Dir  Spd
kts
Gust
kts
Height
m
Period
s
Dir
25/02:30pm S 10 14 - - - - 10 Partly cloudy - 20.6 1017.3 0.0
25/02:00pm SSE 8 11 - - - - 10 Partly cloudy - 20.4 1017.4 0.0
25/01:30pm SSE 8 12 - - - - 10 Partly cloudy - 19.8 1017.6 0.0
25/01:00pm S 9 15 - - - - 10 Partly cloudy - 20.7 1017.6 0.0
25/12:30pm SSW 7 9 - - - - 10 Partly cloudy - 20.9 1018.1 0.0
25/12:00pm SSW 6 8 - - - - 10 Cloudy - 21.1 1018.5 0.0
25/11:30am WSW 6 9 - - - - 10 Partly cloudy - 20.8 1018.8 0.0
25/11:00am WSW 6 9 - - - - 10 Partly cloudy - 20.5 1019.3 0.0
25/10:30am WSW 6 8 - - - - 10 Partly cloudy - 19.9 1019.2 0.0
25/10:00am W 6 8 - - - - 10 Partly cloudy - 19.2 1019.3 0.0
25/09:30am WSW 4 6 - - - - 10 Partly cloudy - 18.9 1019.3 0.0
25/09:00am WNW 7 9 - - - - 10 Cloudy - 18.3 1019.5 6.0
25/08:30am WNW 6 8 - - - - 10 Partly cloudy - 18.0 1019.4 6.0
25/08:00am W 4 6 - - - - 10 Partly cloudy - 17.9 1019.0 6.0
25/07:30am W 5 7 - - - - 10 Cloudy - 17.2 1018.9 6.0
25/07:00am W 5 6 - - - - 10 Partly cloudy - 16.9 1018.7 6.0
25/06:30am WSW 5 7 - - - - 10 Partly cloudy - 16.8 1018.3 6.0
25/06:00am W 4 5 - - - - 10 Cloudy - 16.8 1018.2 6.0
25/05:30am WSW 5 6 - - - - 10 Partly cloudy - 16.8 1018.0 6.0
25/05:00am SSW 7 10 - - - - 10 Partly cloudy - 17.0 1017.8 6.0
25/04:30am WSW 6 7 - - - - 10 Partly cloudy - 17.2 1017.9 6.0
25/04:00am SW 7 8 - - - - 10 Partly cloudy - 17.2 1017.6 6.0
25/03:30am SW 7 9 - - - - 10 Partly cloudy - 17.5 1017.4 6.0
25/03:00am SW 5 7 - - - - 10 Mostly cloudy Showers 17.6 1017.1 5.8
25/02:30am SW 7 12 - - - - 10 Partly cloudy - 18.3 1017.4 0.6
25/02:00am W 6 8 - - - - 10 Partly cloudy - 18.4 1017.6 0.0
25/01:30am SW 9 13 - - - - 10 Partly cloudy - 19.2 1017.4 0.0
25/01:00am S 7 9 - - - - 10 Partly cloudy - 19.5 1017.4 0.0
25/12:30am SW 8 12 - - - - 10 Partly cloudy - 19.8 1017.7 0.0
25/12:00am SW 5 8 - - - - 10 Cloudy - 19.8 1017.4 0.0
 
Date/Time
EST
Wind Sea
Height
m
Swell Vis
km
Cloud Weather Temp
°C
Press
MSL
hPa
Rain since
9am
mm
Dir  Spd
kts
Gust
kts
Height
m
Period
s
Dir
24/11:30pm SSW 7 10 - - - - 10 Partly cloudy - 19.8 1017.2 0.0
24/11:00pm SW 9 13 - - - - 10 Partly cloudy - 20.1 1017.1 0.0
24/10:30pm W 5 6 - - - - 10 Cloudy - 19.7 1016.4 0.0
24/10:00pm WSW 3 4 - - - - 10 Cloudy - 19.4 1016.4 0.0
24/09:30pm CALM 0 0 - - - - 10 Cloudy - 19.4 1016.6 0.0
24/09:00pm CALM 0 0 - - - - 10 Mostly cloudy - 19.3 1016.7 0.0
24/08:30pm CALM 0 0 - - - - 10 Cloudy - 19.8 1016.6 0.0
24/08:00pm NE 4 5 - - - - 10 Cloudy - 20.0 1016.6 0.0
24/07:30pm NNE 2 4 - - - - 10 Cloudy - 20.5 1016.3 0.0
24/07:00pm SW 1 4 - - - - 10 Partly cloudy - 20.9 1016.4 0.0
24/06:30pm CALM 0 0 - - - - 10 Partly cloudy - 20.9 1016.3 0.0
24/06:00pm NNW 1 3 - - - - 10 Cloudy - 22.3 1015.9 0.0
24/05:30pm NW 1 4 - - - - 10 Partly cloudy - 22.6 1015.7 0.0
24/05:00pm CALM 0 0 - - - - 10 Partly cloudy - 23.1 1015.5 0.0
24/04:30pm CALM 0 0 - - - - 10 Cloudy - 25.1 1015.4 0.0
24/04:00pm NW 3 5 - - - - 10 Partly cloudy - 25.5 1015.4 0.0
24/03:30pm NW 5 7 - - - - 10 Partly cloudy - 25.9 1015.4 0.0
24/03:00pm WNW 6 8 - - - - 10 Partly cloudy - 26.1 1015.7 0.0
24/02:30pm NNW 6 8 - - - - 10 Partly cloudy - 26.8 1015.7 0.0
24/02:00pm NNW 6 8 - - - - 10 - - 26.5 1015.7 0.0
24/01:30pm NNW 6 8 - - - - 10 - - 25.6 1016.0 0.0
24/01:00pm NW 7 10 - - - - 10 - - 26.2 1016.2 0.0
24/12:30pm NW 7 9 - - - - 10 Partly cloudy - 26.4 1016.5 0.0
24/12:00pm WNW 5 8 - - - - 10 Mostly cloudy - 25.2 1017.1 0.0
24/11:30am WNW 6 8 - - - - 10 Cloudy - 25.2 1017.6 0.0
24/11:00am WSW 5 7 - - - - 10 Cloudy - 24.4 1018.1 0.0
24/10:30am WNW 5 7 - - - - 10 Partly cloudy - 24.0 1018.2 0.0
24/10:00am WSW 4 6 - - - - 10 Partly cloudy - 22.4 1018.6 0.0
24/09:30am WNW 4 6 - - - - 10 Partly cloudy - 21.0 1018.8 0.0
24/09:00am W 5 7 - - - - 10 Mostly clear - 19.8 1019.1 0.0
24/08:30am WSW 5 6 - - - - 10 Partly cloudy - 18.2 1019.2 0.0
24/08:00am WNW 5 6 - - - - 10 Partly cloudy - 17.1 1019.1 0.0
24/07:30am NNW 1 6 - - - - 10 - - 16.1 1018.9 0.0
24/07:00am CALM 0 0 - - - - 10 Partly cloudy - 14.6 1018.7 0.0
24/06:30am CALM 0 0 - - - - 10 Partly cloudy - 13.8 1018.7 0.0
24/06:00am CALM 0 0 - - - - 10 Mostly cloudy - 14.1 1018.6 0.0
24/05:30am CALM 0 0 - - - - 10 Cloudy - 14.1 1018.6 0.0
24/05:00am CALM 0 0 - - - - 10 Cloudy - 14.1 1018.5 0.0
24/04:44am CALM 0 0 - - - - 10 Cloudy - 14.5 1018.5 0.0
24/04:30am NE 3 4 - - - - 5 Cloudy - 13.6 1018.3 0.0
24/04:29am NE 4 4 - - - - 5 Cloudy - 13.6 1018.3 0.0
24/04:00am WNW 1 4 - - - - 10 Partly cloudy - 15.2 1018.5 0.0
24/03:30am WNW 4 7 - - - - 10 Partly cloudy - 15.3 1018.6 0.0
24/03:00am CALM 0 0 - - - - 10 Mostly cloudy - 15.3 1018.8 0.0
24/02:30am CALM 0 0 - - - - 10 Partly cloudy - 15.4 1019.2 0.0
24/02:00am W 1 4 - - - - 10 Partly cloudy - 15.9 1019.4 0.0
24/01:30am SW 6 7 - - - - 10 Partly cloudy - 16.2 1019.8 0.0
24/01:00am CALM 0 0 - - - - 10 - - 15.8 1019.8 0.0
24/12:30am CALM 0 0 - - - - 10 - - 16.5 1020.0 0.0
24/12:00am WSW 2 3 - - - - 10 - - 17.1 1020.2 0.0
 
Date/Time
EST
Wind Sea
Height
m
Swell Vis
km
Cloud Weather Temp
°C
Press
MSL
hPa
Rain since
9am
mm
Dir  Spd
kts
Gust
kts
Height
m
Period
s
Dir
23/11:30pm W 2 4 - - - - 10 Partly cloudy - 17.8 1020.5 0.0
23/11:00pm SW 4 6 - - - - 10 Cloudy - 18.5 1020.8 0.0
23/10:30pm SW 2 5 - - - - 10 Cloudy - 18.8 1021.0 0.0
23/10:00pm W 2 4 - - - - 10 Cloudy - 18.9 1021.2 0.0
23/09:30pm ENE 2 4 - - - - 10 Cloudy - 19.2 1021.3 0.0
23/09:00pm S 1 4 - - - - 10 Cloudy - 19.5 1021.1 0.0
23/08:30pm ENE 6 7 - - - - 10 Cloudy - 18.7 1021.1 0.0
23/08:00pm NNE 3 4 - - - - 10 Cloudy - 18.7 1021.1 0.0
23/07:30pm CALM 0 3 - - - - 10 Partly cloudy - 18.3 1021.2 0.0
23/07:00pm NNE 3 7 - - - - 10 Cloudy - 19.1 1021.3 0.0
23/06:30pm NNE 5 6 - - - - 10 Partly cloudy - 18.7 1021.2 0.0
23/06:00pm NE 5 6 - - - - 10 - - 19.0 1021.1 0.0
23/05:30pm NNE 5 7 - - - - 10 - - 19.9 1021.2 0.0
23/05:00pm NE 7 9 - - - - 10 - - 20.7 1021.3 0.0
23/04:30pm ENE 9 13 - - - - 10 - - 21.8 1021.3 0.0
23/04:00pm ENE 7 10 - - - - 10 Partly cloudy - 22.4 1021.6 0.0
23/03:30pm E 9 12 - - - - 10 Partly cloudy - 22.4 1021.9 0.0
23/03:00pm E 8 11 - - - - 10 Cloudy Showers 22.9 1022.1 0.0
23/02:30pm E 8 11 - - - - 10 Partly cloudy - 22.8 1022.4 0.0
23/02:00pm E 6 8 - - - - 10 Partly cloudy - 23.1 1022.5 0.0
23/01:30pm SE 6 10 - - - - 10 Partly cloudy - 23.4 1022.8 0.0
23/01:00pm SE 5 9 - - - - 10 Partly cloudy - 23.8 1023.1 0.0
23/12:30pm SE 5 10 - - - - 10 Partly cloudy - 23.5 1023.7 0.0
23/12:00pm W 4 7 - - - - 10 Cloudy - 25.0 1024.3 0.0
23/11:30am SSW 4 6 - - - - 10 Partly cloudy - 23.7 1025.0 0.0
23/11:00am WNW 4 6 - - - - 10 Partly cloudy - 23.0 1025.5 0.0
23/10:30am W 5 7 - - - - 10 - - 22.9 1025.9 0.0
23/10:00am WSW 6 8 - - - - 10 - - 21.8 1026.1 0.0
23/09:30am WSW 7 9 - - - - 10 - - 20.6 1026.2 0.0
23/09:00am WSW 5 7 - - - - 10 - - 19.2 1026.4 0.2
23/08:30am WSW 5 7 - - - - 10 - - 18.0 1026.4 0.2
23/08:00am W 6 7 - - - - 10 - - 16.9 1026.5 0.2
23/07:30am W 7 9 - - - - 10 - - 15.5 1026.2 0.2
23/07:00am NNW 3 4 - - - - 10 - - 14.4 1026.0 0.2
23/06:30am WSW 6 7 - - - - 10 - - 14.1 1025.4 0.2
23/06:00am WSW 6 8 - - - - 10 - - 14.1 1025.3 0.2
23/05:30am W 5 7 - - - - 10 - - 14.0 1025.2 0.2
23/05:00am NNW 4 5 - - - - 10 - - 13.9 1025.1 0.2
23/04:30am WNW 5 6 - - - - 10 Partly cloudy - 14.3 1024.9 0.2
23/04:00am WNW 4 5 - - - - 10 Cloudy - 14.5 1024.8 0.2
23/03:30am W 4 5 - - - - 10 Cloudy - 14.3 1024.7 0.2
23/03:00am W 6 7 - - - - 10 Mostly clear - 14.2 1024.8 0.2
23/02:30am W 4 6 - - - - 10 Partly cloudy - 14.1 1025.1 0.2
23/02:00am NW 3 4 - - - - 10 Partly cloudy - 13.9 1025.3 0.2
23/01:30am W 4 5 - - - - 10 Partly cloudy - 14.3 1025.5 0.2
23/01:00am WNW 1 3 - - - - 10 - - 13.7 1025.6 0.0
23/12:30am WNW 2 4 - - - - 10 - - 14.8 1025.6 0.0
23/12:00am NW 3 4 - - - - 10 - - 15.1 1025.7 0.0
 
Date/Time
EST
Wind Sea
Height
m
Swell Vis
km
Cloud Weather Temp
°C
Press
MSL
hPa
Rain since
9am
mm
Dir  Spd
kts
Gust
kts
Height
m
Period
s
Dir
22/11:30pm WSW 5 7 - - - - 10 - - 15.4 1025.9 0.0
22/11:00pm WSW 5 6 - - - - 10 Partly cloudy - 15.6 1026.0 0.0
22/10:30pm WNW 4 5 - - - - 10 Partly cloudy - 15.8 1026.3 0.0
22/10:00pm W 2 4 - - - - 10 Partly cloudy - 16.0 1026.5 0.0
22/09:30pm W 1 3 - - - - 10 - - 15.4 1026.4 0.0
22/09:00pm CALM 0 0 - - - - 10 Mostly clear - 15.8 1026.4 0.0
22/08:30pm CALM 0 0 - - - - 10 Partly cloudy - 16.0 1026.3 0.0
22/08:00pm CALM 0 0 - - - - 10 Partly cloudy - 16.5 1026.1 0.0
22/07:30pm CALM 0 0 - - - - 10 Partly cloudy - 16.5 1026.1 0.0
22/07:00pm CALM 0 0 - - - - 10 Partly cloudy - 17.4 1025.9 0.0
22/06:30pm NW 3 4 - - - - 10 Partly cloudy - 18.0 1025.8 0.0
22/06:00pm WNW 2 3 - - - - 10 - - 18.4 1025.6 0.0
22/05:30pm SE 1 3 - - - - 10 - - 19.7 1025.4 0.0
22/05:00pm SE 5 5 - - - - 10 - - 21.0 1025.3 0.0
22/04:30pm ESE 5 7 - - - - 10 Partly cloudy - 21.6 1025.2 0.0
22/04:00pm SE 6 8 - - - - 10 Partly cloudy - 22.1 1025.2 0.0
22/03:30pm ESE 8 10 - - - - 10 Partly cloudy - 22.4 1025.3 0.0
22/03:00pm SE 6 9 - - - - 10 Mostly cloudy - 22.7 1025.4 0.0

Other formats

Comma delimited format used in spreadsheet applications
http://www.bom.gov.au/fwo/IDN60701/IDN60701.95784.axf

JavaScript Object Notation format (JSON) in row-major order
http://www.bom.gov.au/fwo/IDN60701/IDN60701.95784.json

Data quality

Most of these data are generated automatically and are frequently updated. Quality checks on data are not normally performed. It is possible for incorrect values to appear. Refer to information at About Latest Weather Observations and please check the disclaimer before using these data.